Portada
METAR-TAF:

METAR-TAF

Aeropuertos :

Aeropuerto Internacional de Brunéi

Brunéi, Brunéi

latitud: 04-56N, longitud: 114-56E, altitud: 22 m

Observación

El informe se hizo hace 38 minutos, a las 06:00 UTC
Viento 7 kt del norte-noroeste
Temperatura 31°C
Humedad 71%
Presión 1008 hPa
Visibilidad 10 km o más
Escasas nubes a una altura de 1600 ft
Cielo nuboso a una altura de 30000 ft

METAR: WBSB 190600Z 33007KT 9999 FEW016 BKN300 31/25 Q1008 NOSIG

Hora: 14:38 (06:38 UTC)

Pronóstico

El informe se hizo hace 1 hora y 48 minutos, a las 04:50 UTC
Pronóstico válido del 19 a las 06 UTC al 20 a las 12 UTC
Viento 12 kt del noreste
Visibilidad 10 km o más
Escasas nubes a una altura de 1700 ft
Evolucionando progresivamente
del 19 a las 13 UTC al 19 a las 15 UTC
Viento 3 kt del este
Escasas nubes a una altura de 1500 ft

TAF: WBSB 190450Z 1906/2012 05012KT 9999 FEW017 BECMG 1913/1915 10003KT FEW015

Observaciones y pronósticos meteorológicos de más de 4000 aeropuertos (mensajes METAR y TAF).

Los puntos amarillos y rojos representan las estaciones disponibles.

Ponga el ratón en el punto deseado para ver el nombre de la estación.

Haga clic para ver las observaciones y los pronósticos meteorológicos.

Para cambiar el mapa : haga clic en los botones verdes con una cruz de color negro para hacer un zoom, en el botón verde con un guión para alejar o en las flechas verdes para mapas adyacentes.


METAR-TAF: